createdAt,value
2023-05-27T00:02:11.555Z,60.17
2023-05-27T00:04:38.530Z,60.13
2023-05-27T00:07:05.592Z,60.20
2023-05-27T00:09:32.465Z,60.28
2023-05-27T00:11:59.394Z,60.29
2023-05-27T00:14:27.334Z,60.34
2023-05-27T00:16:54.380Z,60.22
2023-05-27T00:19:21.275Z,60.33
2023-05-27T00:21:48.191Z,60.28
2023-05-27T00:24:15.237Z,60.30
2023-05-27T00:26:42.158Z,60.43
2023-05-27T00:29:09.125Z,60.34
2023-05-27T00:31:36.335Z,60.33
2023-05-27T00:34:03.570Z,60.38
2023-05-27T00:36:32.914Z,60.31
2023-05-27T00:39:01.353Z,60.30
2023-05-27T00:41:28.577Z,60.25
2023-05-27T00:43:57.672Z,60.43
2023-05-27T00:46:25.399Z,60.35
2023-05-27T00:48:52.745Z,60.39
2023-05-27T00:51:19.823Z,60.34
2023-05-27T00:53:47.670Z,60.41
2023-05-27T00:56:16.789Z,60.29
2023-05-27T00:58:44.646Z,60.36
2023-05-27T01:01:11.826Z,60.26
2023-05-27T01:03:40.399Z,60.25
2023-05-27T01:06:37.967Z,60.23
2023-05-27T01:09:21.405Z,60.14
2023-05-27T01:12:16.421Z,60.23
2023-05-27T01:14:46.389Z,60.18
2023-05-27T01:17:17.398Z,60.34
2023-05-27T01:19:46.593Z,60.29
2023-05-27T01:22:14.994Z,60.12
2023-05-27T01:24:45.511Z,60.08
2023-05-27T01:27:14.419Z,60.09
2023-05-27T01:29:42.697Z,60.05
2023-05-27T01:32:35.808Z,60.28
2023-05-27T01:35:15.309Z,60.32
2023-05-27T01:37:44.094Z,60.29
2023-05-27T01:40:12.542Z,60.35
2023-05-27T01:42:41.391Z,60.38
2023-05-27T01:45:10.924Z,60.48
2023-05-27T01:47:38.036Z,60.40
2023-05-27T01:50:06.408Z,60.41
2023-05-27T01:52:33.454Z,60.42
2023-05-27T01:55:01.608Z,60.25
2023-05-27T01:57:29.205Z,60.31
2023-05-27T01:59:56.221Z,60.05
2023-05-27T02:02:24.008Z,60.06
2023-05-27T02:04:51.358Z,60.18
2023-05-27T02:07:18.383Z,60.08
2023-05-27T02:09:48.016Z,60.18
2023-05-27T02:12:14.996Z,60.12
2023-05-27T02:14:42.162Z,59.99
2023-05-27T02:17:09.260Z,60.10
2023-05-27T02:19:36.533Z,60.15
2023-05-27T02:22:08.612Z,60.05
2023-05-27T02:24:36.585Z,60.10
2023-05-27T02:27:03.855Z,60.03
2023-05-27T02:29:31.013Z,60.02
2023-05-27T02:31:58.552Z,60.09
2023-05-27T02:34:25.881Z,60.05
2023-05-27T02:36:52.970Z,60.07
2023-05-27T02:39:20.124Z,59.99
2023-05-27T02:41:47.101Z,59.99
2023-05-27T02:44:22.775Z,59.87
2023-05-27T02:46:50.123Z,59.90
2023-05-27T02:49:18.524Z,60.00
2023-05-27T02:51:45.670Z,59.81
2023-05-27T02:54:13.172Z,59.91
2023-05-27T02:56:40.601Z,59.80
2023-05-27T02:59:07.931Z,59.77
2023-05-27T03:01:35.220Z,59.93
2023-05-27T03:04:03.473Z,59.86
2023-05-27T03:06:33.145Z,59.85
2023-05-27T03:09:00.991Z,59.89
2023-05-27T03:11:28.295Z,59.79
2023-05-27T03:13:55.440Z,59.84
2023-05-27T03:16:24.363Z,59.84
2023-05-27T03:18:51.755Z,59.70
2023-05-27T03:21:19.510Z,59.65
2023-05-27T03:23:47.186Z,59.71
2023-05-27T03:26:14.342Z,59.75
2023-05-27T03:28:41.743Z,59.71
2023-05-27T03:31:14.174Z,59.73
2023-05-27T03:33:51.940Z,59.79
2023-05-27T03:36:19.367Z,59.72
2023-05-27T03:38:46.897Z,59.70
2023-05-27T03:41:14.954Z,59.75
2023-05-27T03:43:42.363Z,59.81
2023-05-27T03:46:11.622Z,59.65
2023-05-27T03:48:38.850Z,59.70
2023-05-27T03:51:06.063Z,59.72
2023-05-27T03:53:33.372Z,59.71
2023-05-27T03:56:00.897Z,59.65
2023-05-27T03:58:28.545Z,59.71
2023-05-27T04:00:56.490Z,59.66
2023-05-27T04:03:24.237Z,59.68
2023-05-27T04:05:51.632Z,59.70
2023-05-27T04:08:18.799Z,59.76
2023-05-27T04:10:46.050Z,59.81
2023-05-27T04:13:13.302Z,59.69
2023-05-27T04:15:41.523Z,59.67
2023-05-27T04:18:08.749Z,59.76
2023-05-27T04:20:41.913Z,60.04
2023-05-27T04:23:09.949Z,60.06
2023-05-27T04:25:38.540Z,60.19
2023-05-27T04:28:06.753Z,60.38
2023-05-27T04:30:36.944Z,60.51
2023-05-27T04:33:05.586Z,60.57
2023-05-27T04:35:33.018Z,60.61
2023-05-27T04:38:03.138Z,60.72
2023-05-27T04:40:35.748Z,60.72
2023-05-27T04:43:16.588Z,60.96
2023-05-27T04:45:44.857Z,60.90
2023-05-27T04:48:12.679Z,61.37
2023-05-27T04:50:40.656Z,61.45
2023-05-27T04:53:08.533Z,61.54
2023-05-27T04:55:37.314Z,61.49
2023-05-27T04:58:06.634Z,61.53
2023-05-27T05:00:51.481Z,61.53
2023-05-27T05:03:23.193Z,61.56
2023-05-27T05:05:54.453Z,61.63
2023-05-27T05:08:22.821Z,61.66
2023-05-27T05:10:52.751Z,61.67
2023-05-27T05:13:20.300Z,61.65
2023-05-27T05:15:48.401Z,61.79
2023-05-27T05:18:15.711Z,61.86
2023-05-27T05:20:44.736Z,61.92
2023-05-27T05:23:13.333Z,62.11
2023-05-27T05:25:41.183Z,62.31
2023-05-27T05:28:09.033Z,62.18
2023-05-27T05:30:36.976Z,62.12
2023-05-27T05:33:05.081Z,62.08
2023-05-27T05:35:33.232Z,62.02
2023-05-27T05:38:23.558Z,62.07
2023-05-27T05:40:53.790Z,62.00
2023-05-27T05:43:21.944Z,62.20
2023-05-27T05:45:49.887Z,62.16
2023-05-27T05:48:18.631Z,62.17
2023-05-27T05:50:46.896Z,62.26
2023-05-27T05:53:14.937Z,62.33
2023-05-27T05:55:42.603Z,62.45
2023-05-27T05:58:09.888Z,62.65
2023-05-27T06:00:38.334Z,62.81
2023-05-27T06:03:25.773Z,62.89
2023-05-27T06:05:56.205Z,62.89
2023-05-27T06:08:23.478Z,62.75
2023-05-27T06:10:57.894Z,62.87
2023-05-27T06:13:25.558Z,63.04
2023-05-27T06:15:56.895Z,62.93
2023-05-27T06:18:25.185Z,63.03
2023-05-27T06:20:52.979Z,62.97
2023-05-27T06:23:21.637Z,62.97
2023-05-27T06:26:09.142Z,63.16
2023-05-27T06:28:42.270Z,63.17
2023-05-27T06:31:10.977Z,63.28
2023-05-27T06:33:42.509Z,63.07
2023-05-27T06:36:10.182Z,62.97
2023-05-27T06:38:39.367Z,62.83
2023-05-27T06:41:06.721Z,62.48
2023-05-27T06:43:35.247Z,62.21
2023-05-27T06:46:24.216Z,62.07
2023-05-27T06:48:58.286Z,62.03
2023-05-27T06:51:25.856Z,61.92
2023-05-27T06:53:54.306Z,61.89
2023-05-27T06:56:27.429Z,61.84
2023-05-27T06:59:17.575Z,61.85
2023-05-27T07:01:45.736Z,61.73
2023-05-27T07:04:15.599Z,61.71
2023-05-27T07:06:54.892Z,61.72
2023-05-27T07:09:22.613Z,61.71
2023-05-27T07:11:50.058Z,61.67
2023-05-27T07:14:37.587Z,61.58
2023-05-27T07:17:05.171Z,61.59
2023-05-27T07:19:32.653Z,61.54
2023-05-27T07:22:02.940Z,61.56
2023-05-27T07:24:30.696Z,61.47
2023-05-27T07:26:58.322Z,61.44
2023-05-27T07:29:27.049Z,61.47
2023-05-27T07:31:55.047Z,61.47
2023-05-27T07:34:27.677Z,61.47
2023-05-27T07:36:55.163Z,61.51
2023-05-27T07:39:22.622Z,61.37
2023-05-27T07:41:49.922Z,61.34
2023-05-27T07:44:17.340Z,61.34
2023-05-27T07:46:44.671Z,61.24
2023-05-27T07:49:12.254Z,61.37
2023-05-27T07:51:47.081Z,61.28
2023-05-27T07:54:14.815Z,61.25
2023-05-27T07:56:41.860Z,61.25
2023-05-27T07:59:09.208Z,61.28
2023-05-27T08:01:36.416Z,61.24
2023-05-27T08:04:16.287Z,61.28
2023-05-27T08:07:09.060Z,61.22
2023-05-27T08:09:56.538Z,61.04
2023-05-27T08:12:42.434Z,61.02
2023-05-27T08:15:22.054Z,60.87
2023-05-27T08:18:03.269Z,60.92
2023-05-27T08:20:54.512Z,60.95
2023-05-27T08:23:29.833Z,60.84
2023-05-27T08:26:24.412Z,60.90
2023-05-27T08:29:23.569Z,60.92
2023-05-27T08:32:13.650Z,60.90
2023-05-27T08:34:42.610Z,60.86
2023-05-27T08:37:10.460Z,60.90
2023-05-27T08:39:40.901Z,60.99
2023-05-27T08:42:23.307Z,61.01
2023-05-27T08:44:51.550Z,61.00
2023-05-27T08:47:18.775Z,60.98
2023-05-27T08:49:46.915Z,60.91
2023-05-27T08:52:20.686Z,60.89
2023-05-27T08:54:50.225Z,60.86
2023-05-27T08:57:22.321Z,60.83
2023-05-27T08:59:49.660Z,60.78
2023-05-27T09:02:17.356Z,60.76
2023-05-27T09:04:45.285Z,60.84
2023-05-27T09:07:12.608Z,60.75
2023-05-27T09:09:43.775Z,60.82
2023-05-27T09:12:11.131Z,60.74
2023-05-27T09:14:44.017Z,60.78
2023-05-27T09:17:11.173Z,60.77
2023-05-27T09:19:38.540Z,60.70
2023-05-27T09:22:05.735Z,60.66
2023-05-27T09:24:32.999Z,60.63
2023-05-27T09:27:02.156Z,60.75
2023-05-27T09:29:29.950Z,60.77
2023-05-27T09:31:57.805Z,60.94
2023-05-27T09:34:25.340Z,60.90
2023-05-27T09:36:54.198Z,60.80
2023-05-27T09:39:24.008Z,60.80
2023-05-27T09:41:54.530Z,60.82
2023-05-27T09:44:21.888Z,60.65
2023-05-27T09:46:53.421Z,60.60
2023-05-27T09:49:22.387Z,60.55
2023-05-27T09:51:50.085Z,60.50
2023-05-27T09:54:21.334Z,60.76
2023-05-27T09:56:50.594Z,60.74
2023-05-27T09:59:18.735Z,60.67
2023-05-27T10:01:48.567Z,60.60
2023-05-27T10:04:17.666Z,60.61
2023-05-27T10:06:46.938Z,60.53
2023-05-27T10:09:14.775Z,60.34
2023-05-27T10:11:42.808Z,60.51
2023-05-27T10:14:12.111Z,60.37
2023-05-27T10:16:39.494Z,60.30
2023-05-27T10:19:12.148Z,60.32
2023-05-27T10:21:45.340Z,60.26
2023-05-27T10:24:16.090Z,60.25
2023-05-27T10:26:45.331Z,60.21
2023-05-27T10:29:21.706Z,60.27
2023-05-27T10:31:54.090Z,60.45
2023-05-27T10:34:21.936Z,60.60
2023-05-27T10:37:00.991Z,60.51
2023-05-27T10:39:30.256Z,60.43
2023-05-27T10:41:58.980Z,60.33
2023-05-27T10:44:41.314Z,60.36
2023-05-27T10:47:13.460Z,60.17
2023-05-27T10:49:41.821Z,60.26
2023-05-27T10:52:18.104Z,60.40
2023-05-27T10:54:53.809Z,60.28
2023-05-27T10:57:23.741Z,60.17
2023-05-27T10:59:58.493Z,60.14
2023-05-27T11:02:33.024Z,60.09
2023-05-27T11:05:00.316Z,60.13
2023-05-27T11:07:28.059Z,60.17
2023-05-27T11:09:56.726Z,60.05
2023-05-27T11:12:25.659Z,60.18
2023-05-27T11:14:55.641Z,60.08
2023-05-27T11:17:24.578Z,60.09
2023-05-27T11:19:52.079Z,60.07
2023-05-27T11:22:20.810Z,60.10
2023-05-27T11:24:57.064Z,60.11
2023-05-27T11:27:24.582Z,60.04
2023-05-27T11:29:53.933Z,60.14
2023-05-27T11:32:22.223Z,60.16
2023-05-27T11:34:49.887Z,60.08
2023-05-27T11:37:18.081Z,60.06
2023-05-27T11:39:53.137Z,60.30
2023-05-27T11:42:25.374Z,60.35
2023-05-27T11:44:55.139Z,60.41
2023-05-27T11:47:24.017Z,60.28
2023-05-27T11:49:51.840Z,60.26
2023-05-27T11:52:19.623Z,60.12
2023-05-27T11:57:22.591Z,60.17
2023-05-27T11:59:49.974Z,60.06
2023-05-27T12:02:17.444Z,60.03
2023-05-27T12:04:44.998Z,59.88
2023-05-27T12:07:20.241Z,60.08
2023-05-27T12:09:52.706Z,59.91
2023-05-27T12:12:23.034Z,59.91
2023-05-27T12:14:50.289Z,59.76
2023-05-27T12:17:17.762Z,60.00
2023-05-27T12:19:45.201Z,60.00
2023-05-27T12:22:12.564Z,59.99
2023-05-27T12:24:39.838Z,59.92
2023-05-27T12:27:07.046Z,59.89
2023-05-27T12:29:36.379Z,59.96
2023-05-27T12:32:03.944Z,59.97
2023-05-27T12:34:31.389Z,59.92
2023-05-27T12:36:58.906Z,59.98
2023-05-27T12:39:26.374Z,60.01
2023-05-27T12:41:53.662Z,59.95
2023-05-27T12:44:21.182Z,59.99
2023-05-27T12:46:48.695Z,59.96
2023-05-27T12:49:15.942Z,60.05
2023-05-27T12:51:44.089Z,59.95
2023-05-27T12:54:12.905Z,59.89
2023-05-27T12:56:40.459Z,59.93
2023-05-27T12:59:08.339Z,59.89
2023-05-27T13:01:35.887Z,59.99
2023-05-27T13:04:03.110Z,59.77
2023-05-27T13:06:30.501Z,59.88
2023-05-27T13:08:57.754Z,59.87
2023-05-27T13:11:25.066Z,59.82
2023-05-27T13:13:52.468Z,59.85
2023-05-27T13:16:19.761Z,59.65
2023-05-27T13:18:47.894Z,59.76
2023-05-27T13:21:15.462Z,59.79
2023-05-27T13:23:42.968Z,59.78
2023-05-27T13:26:10.852Z,59.93
2023-05-27T13:28:38.466Z,60.01
2023-05-27T13:31:06.419Z,60.01
2023-05-27T13:33:33.878Z,60.04
2023-05-27T13:36:01.070Z,60.08
2023-05-27T13:38:28.402Z,60.03
2023-05-27T13:40:55.484Z,59.93
2023-05-27T13:43:22.798Z,59.90
2023-05-27T13:45:50.181Z,59.95
2023-05-27T13:48:17.796Z,59.97
2023-05-27T13:50:45.897Z,59.99
2023-05-27T13:53:13.302Z,59.93
2023-05-27T13:55:40.609Z,59.96
2023-05-27T13:58:08.363Z,59.91
2023-05-27T14:00:36.248Z,59.93
2023-05-27T14:03:03.710Z,60.06
2023-05-27T14:05:31.687Z,60.03
2023-05-27T14:07:59.035Z,60.04
2023-05-27T14:10:26.486Z,59.96
2023-05-27T14:12:54.350Z,60.01
2023-05-27T14:15:21.458Z,60.01
2023-05-27T14:17:48.667Z,60.01
2023-05-27T14:20:16.017Z,59.96
2023-05-27T14:22:44.181Z,60.10
2023-05-27T14:25:11.836Z,60.03
2023-05-27T14:27:39.106Z,60.05
2023-05-27T14:30:07.078Z,60.04
2023-05-27T14:32:34.959Z,59.91
2023-05-27T14:35:02.016Z,59.91
2023-05-27T14:37:29.418Z,59.86
2023-05-27T14:39:59.587Z,59.77
2023-05-27T14:42:29.077Z,59.74
2023-05-27T14:44:58.542Z,59.72
2023-05-27T14:47:28.518Z,59.76
2023-05-27T14:49:55.921Z,59.84
2023-05-27T14:52:23.681Z,59.91
2023-05-27T14:54:51.083Z,59.71
2023-05-27T14:57:18.380Z,59.73
2023-05-27T14:59:45.878Z,59.61
2023-05-27T15:02:13.005Z,59.59
2023-05-27T15:04:40.003Z,59.67
2023-05-27T15:07:07.050Z,59.59
2023-05-27T15:09:34.053Z,59.75
2023-05-27T15:12:01.039Z,59.58
2023-05-27T15:14:28.262Z,59.63
2023-05-27T15:16:55.254Z,59.64
2023-05-27T15:19:22.651Z,59.66
2023-05-27T15:21:49.626Z,59.57
2023-05-27T15:24:16.887Z,59.56
2023-05-27T15:26:44.146Z,59.67
2023-05-27T15:29:11.244Z,59.58
2023-05-27T15:31:38.342Z,59.57
2023-05-27T15:34:06.112Z,59.45
2023-05-27T15:36:33.321Z,59.45
2023-05-27T15:39:00.477Z,59.41
2023-05-27T15:41:27.470Z,59.42
2023-05-27T15:43:54.398Z,59.38
2023-05-27T15:46:25.472Z,59.32
2023-05-27T15:48:53.221Z,59.26
2023-05-27T15:51:20.209Z,59.34
2023-05-27T15:53:47.363Z,59.30
2023-05-27T15:56:14.392Z,59.26
2023-05-27T15:58:41.444Z,59.30
2023-05-27T16:01:08.422Z,59.27
2023-05-27T16:03:35.467Z,59.15
2023-05-27T16:06:07.016Z,59.14
2023-05-27T16:08:34.007Z,59.14
2023-05-27T16:11:01.238Z,59.17
2023-05-27T16:13:28.274Z,59.05
2023-05-27T16:15:57.003Z,59.18
2023-05-27T16:18:24.127Z,59.13
2023-05-27T16:20:52.528Z,58.95
2023-05-27T16:23:20.306Z,59.15
2023-05-27T16:25:47.651Z,58.83
2023-05-27T16:28:14.718Z,59.05
2023-05-27T16:30:41.738Z,59.11
2023-05-27T16:33:08.743Z,58.99
2023-05-27T16:35:36.057Z,59.03
2023-05-27T16:38:03.044Z,58.93
2023-05-27T16:40:30.022Z,58.91
2023-05-27T16:42:57.012Z,58.96
2023-05-27T16:45:24.038Z,58.99
2023-05-27T16:47:51.063Z,59.06
2023-05-27T16:50:18.213Z,58.92
2023-05-27T16:52:45.414Z,58.94
2023-05-27T16:55:12.350Z,59.02
2023-05-27T16:57:39.569Z,58.98
2023-05-27T17:00:07.474Z,58.93
2023-05-27T17:02:34.709Z,58.87
2023-05-27T17:05:01.969Z,59.24
2023-05-27T17:07:29.212Z,59.31
2023-05-27T17:09:56.564Z,59.62
2023-05-27T17:12:23.568Z,59.95
2023-05-27T17:14:55.403Z,60.26
2023-05-27T17:17:22.329Z,60.51
2023-05-27T17:19:49.615Z,60.44
2023-05-27T17:22:16.910Z,60.52
2023-05-27T17:24:43.957Z,60.53
2023-05-27T17:27:11.515Z,60.51
2023-05-27T17:29:39.704Z,60.64
2023-05-27T17:32:07.979Z,60.59
2023-05-27T17:34:35.058Z,60.73
2023-05-27T17:37:02.101Z,60.70
2023-05-27T17:39:29.074Z,60.71
2023-05-27T17:41:56.608Z,60.74
2023-05-27T17:44:23.954Z,60.79
2023-05-27T17:46:51.075Z,60.77
2023-05-27T17:49:18.211Z,61.01
2023-05-27T17:51:45.196Z,60.97
2023-05-27T17:54:12.427Z,61.04
2023-05-27T17:56:39.528Z,61.18
2023-05-27T17:59:06.527Z,61.42
2023-05-27T18:01:33.759Z,61.34
2023-05-27T18:04:01.020Z,61.29
2023-05-27T18:06:28.033Z,61.32
2023-05-27T18:08:55.143Z,61.25
2023-05-27T18:11:23.020Z,61.20
2023-05-27T18:13:50.400Z,61.24
2023-05-27T18:16:17.398Z,61.22
2023-05-27T18:18:44.502Z,61.09
2023-05-27T18:21:12.228Z,61.24
2023-05-27T18:23:39.160Z,61.27
2023-05-27T18:26:06.816Z,61.36
2023-05-27T18:28:33.812Z,61.32
2023-05-27T18:31:01.020Z,61.30
2023-05-27T18:33:28.284Z,61.44
2023-05-27T18:35:55.534Z,61.41
2023-05-27T18:38:22.572Z,61.59
2023-05-27T18:40:52.262Z,61.82
2023-05-27T18:43:20.203Z,61.95
2023-05-27T18:45:58.159Z,61.86
2023-05-27T18:48:29.247Z,61.77
2023-05-27T18:50:58.042Z,62.18
2023-05-27T18:53:25.759Z,61.99
2023-05-27T18:55:53.756Z,62.03
2023-05-27T18:58:21.628Z,61.94
2023-05-27T19:00:48.715Z,61.94
2023-05-27T19:03:18.448Z,61.84
2023-05-27T19:05:47.046Z,61.94
2023-05-27T19:08:14.428Z,62.17
2023-05-27T19:10:41.525Z,62.18
2023-05-27T19:13:08.624Z,62.02
2023-05-27T19:15:38.270Z,62.15
2023-05-27T19:18:06.105Z,62.01
2023-05-27T19:20:33.699Z,61.95
2023-05-27T19:23:00.977Z,62.02
2023-05-27T19:25:28.236Z,61.98
2023-05-27T19:27:56.362Z,62.06
2023-05-27T19:30:25.574Z,62.06
2023-05-27T19:32:53.292Z,62.22
2023-05-27T19:35:20.426Z,62.45
2023-05-27T19:37:48.082Z,62.39
2023-05-27T19:40:15.922Z,62.35
2023-05-27T19:42:43.121Z,62.38
2023-05-27T19:45:10.976Z,62.41
2023-05-27T19:47:38.201Z,62.25
2023-05-27T19:50:06.837Z,62.35
2023-05-27T19:52:33.834Z,62.33
2023-05-27T19:55:02.441Z,62.39
2023-05-27T19:57:29.861Z,62.48
2023-05-27T19:59:56.933Z,62.56
2023-05-27T20:02:24.074Z,62.77
2023-05-27T20:04:51.374Z,62.73
2023-05-27T20:07:18.506Z,62.78
2023-05-27T20:09:45.631Z,62.62
2023-05-27T20:12:12.921Z,62.57
2023-05-27T20:14:40.031Z,62.53
2023-05-27T20:17:08.231Z,62.55
2023-05-27T20:19:35.607Z,62.61
2023-05-27T20:22:02.545Z,62.58
2023-05-27T20:24:29.715Z,62.68
2023-05-27T20:26:56.710Z,62.77
2023-05-27T20:29:24.213Z,62.93
2023-05-27T20:31:51.337Z,63.10
2023-05-27T20:34:18.489Z,63.12
2023-05-27T20:36:45.933Z,63.38
2023-05-27T20:39:12.937Z,63.31
2023-05-27T20:41:40.068Z,63.27
2023-05-27T20:44:07.227Z,63.15
2023-05-27T20:46:34.517Z,63.25
2023-05-27T20:49:02.253Z,63.15
2023-05-27T20:51:29.202Z,63.13
2023-05-27T20:53:57.786Z,63.19
2023-05-27T20:56:29.780Z,63.41
2023-05-27T20:58:58.362Z,63.60
2023-05-27T21:01:32.305Z,63.70
2023-05-27T21:04:05.404Z,63.47
2023-05-27T21:06:33.244Z,63.42
2023-05-27T21:09:00.389Z,63.33
2023-05-27T21:11:27.802Z,63.35
2023-05-27T21:13:54.928Z,63.37
2023-05-27T21:16:22.101Z,63.42
2023-05-27T21:18:49.264Z,63.43
2023-05-27T21:21:16.415Z,63.39
2023-05-27T21:23:43.552Z,63.66
2023-05-27T21:26:11.347Z,63.60
2023-05-27T21:28:39.850Z,63.65
2023-05-27T21:31:07.042Z,63.60
2023-05-27T21:33:34.114Z,63.53
2023-05-27T21:36:01.636Z,63.43
2023-05-27T21:38:32.931Z,63.40
2023-05-27T21:41:00.969Z,63.29
2023-05-27T21:43:28.091Z,63.37
2023-05-27T21:45:55.384Z,63.34
2023-05-27T21:48:22.824Z,63.40
2023-05-27T21:50:50.240Z,63.57
2023-05-27T21:53:17.274Z,63.59
2023-05-27T21:55:44.615Z,63.74
2023-05-27T21:58:11.910Z,63.70
2023-05-27T22:00:42.191Z,63.76
2023-05-27T22:03:09.750Z,63.61
2023-05-27T22:05:36.969Z,63.65
2023-05-27T22:08:05.663Z,63.72
2023-05-27T22:10:33.753Z,63.62
2023-05-27T22:13:02.035Z,63.56
2023-05-27T22:15:29.874Z,63.55
2023-05-27T22:17:57.481Z,63.76
2023-05-27T22:20:24.829Z,63.90
2023-05-27T22:22:52.197Z,63.73
2023-05-27T22:25:19.365Z,63.69
2023-05-27T22:27:47.590Z,63.70
2023-05-27T22:30:15.035Z,63.70
2023-05-27T22:32:42.684Z,63.64
2023-05-27T22:35:10.382Z,63.73
2023-05-27T22:37:37.508Z,63.79
2023-05-27T22:40:05.477Z,63.75
2023-05-27T22:42:32.560Z,63.84
2023-05-27T22:45:00.808Z,63.85
2023-05-27T22:47:28.019Z,63.89
2023-05-27T22:49:55.102Z,63.81
2023-05-27T22:52:22.914Z,63.81
2023-05-27T22:54:50.370Z,63.77
2023-05-27T22:57:17.564Z,63.78
2023-05-27T22:59:45.276Z,63.86
2023-05-27T23:02:14.778Z,63.98
2023-05-27T23:04:42.014Z,64.03
2023-05-27T23:07:09.213Z,64.00
2023-05-27T23:09:38.818Z,64.04
2023-05-27T23:12:06.585Z,63.98
2023-05-27T23:14:33.822Z,63.91
2023-05-27T23:17:02.358Z,63.96
2023-05-27T23:19:30.517Z,63.90
2023-05-27T23:21:57.554Z,64.06
2023-05-27T23:24:24.938Z,64.15
2023-05-27T23:26:52.074Z,64.27
2023-05-27T23:29:19.159Z,64.29
2023-05-27T23:31:46.648Z,64.38
2023-05-27T23:34:14.538Z,64.45
2023-05-27T23:36:43.839Z,64.34
2023-05-27T23:39:11.614Z,64.40
2023-05-27T23:41:38.617Z,64.37
2023-05-27T23:44:06.315Z,64.36
2023-05-27T23:46:33.510Z,64.43
2023-05-27T23:49:00.827Z,64.42
2023-05-27T23:51:27.870Z,64.69
2023-05-27T23:53:54.944Z,64.92
2023-05-27T23:56:22.069Z,64.79
2023-05-27T23:58:49.323Z,64.72
